Time;durP1;ratioP1;P1;durP2;ratioP2;P2;SDS_P1;SDS_P2;PMS_P1;PMS_P2;Temp;Humidity;BMP_temperature;BMP_pressure;BME280_temperature;BME280_humidity;BME280_pressure;Samples;Min_cycle;Max_cycle;Signal;HPM_P1;HPM_P2
2021/03/06 00:00:52;;;;;;;22.23;9.73;;;;;;;-3.49;100.00;99186.03;5015867;28;20053;-81
2021/03/06 00:03:19;;;;;;;24.67;9.90;;;;;;;-3.56;100.00;99191.22;5020574;28;20052;-82
2021/03/06 00:05:45;;;;;;;23.92;10.27;;;;;;;-3.50;100.00;99193.16;5019778;28;20042;-82
2021/03/06 00:08:11;;;;;;;24.52;10.13;;;;;;;-3.55;100.00;99215.88;5019649;28;20052;-81
2021/03/06 00:10:37;;;;;;;21.85;10.60;;;;;;;-3.70;100.00;99200.03;5022062;28;20046;-82
2021/03/06 00:13:04;;;;;;;26.50;10.00;;;;;;;-3.63;100.00;99203.56;5021759;28;20056;-83
2021/03/06 00:15:30;;;;;;;23.10;10.32;;;;;;;-3.66;100.00;99205.75;5021860;28;20052;-82
2021/03/06 00:17:58;;;;;;;21.00;9.43;;;;;;;-3.73;100.00;99205.69;5018972;28;20033;-82
2021/03/06 00:20:24;;;;;;;28.23;10.57;;;;;;;-3.80;100.00;99202.97;5018721;28;20046;-83
2021/03/06 00:22:52;;;;;;;22.98;10.20;;;;;;;-3.89;100.00;99201.44;5018517;28;20061;-82
2021/03/06 00:25:19;;;;;;;22.33;10.57;;;;;;;-3.86;100.00;99209.00;5016459;28;20049;-81
2021/03/06 00:27:48;;;;;;;25.30;10.88;;;;;;;-3.83;100.00;99200.72;5018193;28;20053;-80
2021/03/06 00:30:16;;;;;;;31.63;10.63;;;;;;;-3.80;100.00;99205.63;5019647;28;20045;-84
2021/03/06 00:32:43;;;;;;;18.25;9.25;;;;;;;-3.84;100.00;99190.28;5025594;28;20046;-83
2021/03/06 00:35:11;;;;;;;20.63;10.13;;;;;;;-3.79;100.00;99215.19;5035198;28;20050;-82
2021/03/06 00:37:37;;;;;;;25.83;10.13;;;;;;;-3.77;100.00;99213.16;5044300;28;20049;-83
2021/03/06 00:40:08;;;;;;;22.70;9.98;;;;;;;-3.83;100.00;99206.00;5034105;28;20116;-83
2021/03/06 00:42:34;;;;;;;21.23;9.88;;;;;;;-3.95;100.00;99204.00;5022850;28;20060;-82
2021/03/06 00:45:00;;;;;;;22.90;9.98;;;;;;;-3.78;100.00;99216.00;5041036;28;20052;-82
2021/03/06 00:47:27;;;;;;;22.67;9.85;;;;;;;-3.74;100.00;99214.63;5034711;28;20042;-82
2021/03/06 00:49:54;;;;;;;23.17;9.85;;;;;;;-3.84;100.00;99214.09;5019451;28;20045;-83
2021/03/06 00:52:21;;;;;;;25.05;10.70;;;;;;;-3.80;100.00;99225.97;5028830;28;20056;-80
2021/03/06 00:54:49;;;;;;;23.90;9.45;;;;;;;-3.81;100.00;99217.22;5032018;28;20065;-81
2021/03/06 00:57:15;;;;;;;24.23;9.80;;;;;;;-3.92;100.00;99196.50;5051701;28;20049;-81
2021/03/06 00:59:42;;;;;;;25.48;9.85;;;;;;;-3.90;100.00;99214.84;5050337;28;20042;-82
2021/03/06 01:02:08;;;;;;;23.20;8.95;;;;;;;-3.98;100.00;99215.78;5049790;28;20515;-82
2021/03/06 01:04:34;;;;;;;23.95;10.07;;;;;;;-3.96;100.00;99218.22;5024637;28;20053;-81
2021/03/06 01:07:01;;;;;;;23.23;10.20;;;;;;;-4.17;100.00;99218.97;5025463;28;20050;-82
2021/03/06 01:09:27;;;;;;;26.13;11.20;;;;;;;-4.15;100.00;99213.47;5004912;28;20061;-83
2021/03/06 01:11:53;;;;;;;20.15;9.35;;;;;;;-4.07;100.00;99216.03;5022389;28;20046;-82
2021/03/06 01:14:20;;;;;;;20.38;9.07;;;;;;;-4.10;100.00;99195.22;5018313;28;20053;-82
2021/03/06 01:16:47;;;;;;;21.20;9.55;;;;;;;-4.02;100.00;99216.31;5018498;28;20046;-81
2021/03/06 01:19:13;;;;;;;18.73;9.57;;;;;;;-4.06;100.00;99207.94;5032039;28;20057;-82
2021/03/06 01:21:39;;;;;;;21.15;8.30;;;;;;;-4.09;100.00;99202.19;5017436;28;20046;-81
2021/03/06 01:24:09;;;;;;;20.17;8.95;;;;;;;-4.16;100.00;99209.22;5016799;28;20081;-81
2021/03/06 01:26:36;;;;;;;21.77;9.23;;;;;;;-4.08;100.00;99201.19;5017355;28;20524;-82
2021/03/06 01:29:02;;;;;;;22.33;9.52;;;;;;;-4.16;100.00;99196.81;5000427;28;20124;-82
2021/03/06 01:31:28;;;;;;;22.13;9.02;;;;;;;-4.15;100.00;99194.97;4998722;28;20042;-82
2021/03/06 01:33:56;;;;;;;22.65;8.52;;;;;;;-4.13;100.00;99191.13;5016964;28;20052;-80
2021/03/06 01:36:26;;;;;;;24.17;8.35;;;;;;;-4.18;100.00;99182.13;5014637;28;20050;-82
2021/03/06 01:38:52;;;;;;;21.27;9.00;;;;;;;-4.17;100.00;99189.03;5013927;28;20045;-81
2021/03/06 01:41:18;;;;;;;20.83;8.68;;;;;;;-4.15;100.00;99192.31;5014133;28;20049;-80
2021/03/06 01:43:45;;;;;;;21.70;8.93;;;;;;;-4.11;100.00;99186.50;5014691;28;20046;-82
2021/03/06 01:46:11;;;;;;;17.63;8.07;;;;;;;-4.09;100.00;99189.78;5014357;28;20069;-82
2021/03/06 01:48:38;;;;;;;20.00;8.30;;;;;;;-4.24;100.00;99169.63;5031079;28;20045;-82
2021/03/06 01:51:04;;;;;;;19.27;7.97;;;;;;;-4.07;100.00;99173.72;5014634;28;20057;-82
2021/03/06 01:53:31;;;;;;;19.98;8.70;;;;;;;-4.18;100.00;99182.13;5016111;28;20042;-81
2021/03/06 01:55:57;;;;;;;19.90;7.82;;;;;;;-4.20;100.00;99177.00;5023523;28;20072;-81
2021/03/06 01:58:24;;;;;;;18.10;7.57;;;;;;;-4.18;100.00;99188.22;5009963;28;20042;-80
2021/03/06 02:00:51;;;;;;;16.48;7.88;;;;;;;-4.16;100.00;99178.31;5027531;28;20143;-80
2021/03/06 02:03:18;;;;;;;16.98;7.60;;;;;;;-4.24;100.00;99170.47;5028664;28;20053;-81
2021/03/06 02:05:45;;;;;;;14.73;7.38;;;;;;;-4.28;100.00;99171.03;5029095;28;20042;-81
2021/03/06 02:08:11;;;;;;;21.98;8.00;;;;;;;-4.35;100.00;99173.56;5011020;28;20091;-82
2021/03/06 02:10:43;;;;;;;21.15;8.38;;;;;;;-4.38;100.00;99171.28;5021183;28;20048;-82
2021/03/06 02:13:53;;;;;;;22.13;8.98;;;;;;;-4.34;100.00;99185.78;5013888;28;20044;-82
2021/03/06 02:16:30;;;;;;;20.17;8.05;;;;;;;-4.35;100.00;99172.72;5010716;28;20054;-82
2021/03/06 02:19:25;;;;;;;22.63;8.70;;;;;;;-4.48;100.00;99179.47;5012887;28;20052;-81
2021/03/06 02:22:09;;;;;;;18.05;8.00;;;;;;;-4.50;100.00;99192.06;5014219;28;20050;-82
2021/03/06 02:24:51;;;;;;;17.58;7.80;;;;;;;-4.47;100.00;99180.31;5014685;28;20564;-82
2021/03/06 02:27:55;;;;;;;18.20;7.95;;;;;;;-4.39;100.00;99174.94;5014705;28;20498;-82
2021/03/06 02:30:25;;;;;;;20.25;7.93;;;;;;;-4.44;100.00;99177.31;5013566;28;20374;-82
2021/03/06 02:32:52;;;;;;;16.08;7.15;;;;;;;-4.45;100.00;99178.28;5014609;28;20049;-81
2021/03/06 02:35:23;;;;;;;19.30;7.97;;;;;;;-4.50;100.00;99189.41;5014228;28;20063;-81
2021/03/06 02:37:55;;;;;;;16.77;8.07;;;;;;;-4.56;100.00;99176.09;5013849;28;20046;-80
2021/03/06 02:40:22;;;;;;;19.15;8.32;;;;;;;-4.62;100.00;99167.06;5015038;28;20050;-81
2021/03/06 02:42:52;;;;;;;16.85;7.95;;;;;;;-4.72;100.00;99169.16;5014116;28;20050;-80
2021/03/06 02:45:20;;;;;;;21.10;7.63;;;;;;;-4.60;100.00;99178.28;5014532;28;20069;-80
2021/03/06 02:47:47;;;;;;;19.63;8.10;;;;;;;-4.62;100.00;99180.28;5014628;28;20132;-80
2021/03/06 02:50:14;;;;;;;15.18;7.70;;;;;;;-4.59;100.00;99189.66;5016284;28;20057;-80
2021/03/06 02:52:40;;;;;;;18.35;7.43;;;;;;;-4.64;100.00;99178.81;5018134;28;20516;-82
2021/03/06 02:55:09;;;;;;;16.85;7.97;;;;;;;-4.64;100.00;99176.16;5015461;28;20049;-80
2021/03/06 02:57:57;;;;;;;20.45;8.27;;;;;;;-4.65;100.00;99185.13;5014226;28;20048;-80
2021/03/06 03:00:46;;;;;;;19.55;7.82;;;;;;;-4.74;100.00;99188.81;5013819;28;20071;-78
2021/03/06 03:03:24;;;;;;;17.52;8.15;;;;;;;-4.67;100.00;99192.41;5026278;28;20336;-80
2021/03/06 03:05:58;;;;;;;15.75;7.72;;;;;;;-4.69;100.00;99179.34;5034438;28;20049;-78
2021/03/06 03:08:53;;;;;;;20.52;8.25;;;;;;;-4.72;100.00;99186.84;5036116;28;20041;-81
2021/03/06 03:11:33;;;;;;;12.13;5.65;;;;;;;-4.63;100.00;99185.75;5031950;28;20045;-80
2021/03/06 03:14:01;;;;;;;19.55;7.80;;;;;;;-4.67;100.00;99180.00;5036050;28;20045;-80
2021/03/06 03:16:44;;;;;;;17.38;7.63;;;;;;;-4.73;100.00;99164.88;5034028;28;20520;-79
2021/03/06 03:19:28;;;;;;;17.83;7.88;;;;;;;-4.68;100.00;99196.03;5035027;28;20045;-80
2021/03/06 03:21:56;;;;;;;17.65;7.82;;;;;;;-4.80;100.00;99184.28;5035802;28;20052;-79
2021/03/06 03:24:24;;;;;;;18.50;8.18;;;;;;;-4.87;100.00;99183.31;5037120;28;20416;-81
2021/03/06 03:26:53;;;;;;;21.27;7.70;;;;;;;-4.79;100.00;99194.66;5032672;28;20057;-81
2021/03/06 03:29:19;;;;;;;18.38;8.23;;;;;;;-4.81;100.00;99185.25;5020699;28;20689;-79
2021/03/06 03:31:49;;;;;;;17.55;7.10;;;;;;;-4.79;100.00;99189.34;5014249;28;20274;-80
2021/03/06 03:34:19;;;;;;;18.25;7.85;;;;;;;-4.67;100.00;99184.47;5015733;28;20076;-81
2021/03/06 03:36:46;;;;;;;15.32;7.50;;;;;;;-4.72;100.00;99190.28;5030332;28;20046;-80
2021/03/06 03:39:13;;;;;;;16.95;7.28;;;;;;;-4.78;100.00;99188.38;5012715;28;20056;-79
2021/03/06 03:41:39;;;;;;;16.75;7.45;;;;;;;-4.84;100.00;99189.06;5014576;28;20046;-80
2021/03/06 03:44:07;;;;;;;22.10;8.68;;;;;;;-4.86;100.00;99190.25;5015474;28;20068;-79
2021/03/06 03:46:34;;;;;;;23.17;8.25;;;;;;;-4.89;100.00;99191.44;5014517;28;20061;-80
2021/03/06 03:49:03;;;;;;;19.80;8.10;;;;;;;-4.90;100.00;99188.97;5033361;28;20044;-81
2021/03/06 03:51:32;;;;;;;17.73;7.47;;;;;;;-4.80;100.00;99193.00;5031353;28;20124;-79
2021/03/06 03:53:59;;;;;;;18.40;7.55;;;;;;;-4.83;100.00;99193.38;5014220;28;20046;-79
2021/03/06 03:56:27;;;;;;;20.50;7.75;;;;;;;-4.74;100.00;99197.56;5029263;28;20041;-81
2021/03/06 03:58:53;;;;;;;17.40;7.80;;;;;;;-4.73;100.00;99193.13;5034093;28;20049;-81
2021/03/06 04:01:19;;;;;;;18.17;7.93;;;;;;;-4.79;100.00;99193.81;5035558;28;20045;-80
2021/03/06 04:03:46;;;;;;;14.18;7.00;;;;;;;-4.81;100.00;99201.94;5036899;28;20061;-81
2021/03/06 04:06:12;;;;;;;17.85;7.78;;;;;;;-4.89;100.00;99204.63;5039936;28;20042;-80
2021/03/06 04:08:38;;;;;;;20.17;7.93;;;;;;;-4.95;100.00;99207.97;5039748;28;20539;-79
2021/03/06 04:11:05;;;;;;;18.95;8.05;;;;;;;-4.96;100.00;99209.00;5039647;28;20047;-79
2021/03/06 04:13:31;;;;;;;15.93;7.68;;;;;;;-4.87;100.00;99204.44;5055890;28;20117;-79
2021/03/06 04:15:57;;;;;;;17.92;8.57;;;;;;;-4.90;100.00;99216.19;5039026;28;20041;-80
2021/03/06 04:18:24;;;;;;;17.17;7.93;;;;;;;-4.89;100.00;99204.63;5049450;22;20065;-79
2021/03/06 04:20:50;;;;;;;17.70;8.85;;;;;;;-4.87;100.00;99209.72;5050543;28;20064;-79
2021/03/06 04:23:17;;;;;;;21.70;8.65;;;;;;;-4.88;100.00;99222.13;5035366;28;20110;-79
2021/03/06 04:25:43;;;;;;;21.42;9.20;;;;;;;-4.91;100.00;99211.91;5018551;28;20550;-79
2021/03/06 04:28:10;;;;;;;17.38;8.43;;;;;;;-4.96;100.00;99205.53;5039776;28;20049;-78
2021/03/06 04:30:36;;;;;;;22.63;8.82;;;;;;;-4.96;100.00;99216.91;5051779;28;20106;-78
2021/03/06 04:33:03;;;;;;;19.75;8.38;;;;;;;-4.97;100.00;99212.63;5049990;28;20374;-77
2021/03/06 04:35:30;;;;;;;17.98;8.38;;;;;;;-4.98;100.00;99218.88;5046251;28;20065;-78
2021/03/06 04:37:57;;;;;;;19.40;8.40;;;;;;;-4.97;100.00;99222.34;5042673;28;20760;-80
2021/03/06 04:40:23;;;;;;;23.77;8.82;;;;;;;-4.92;100.00;99217.38;5025550;28;20073;-78
2021/03/06 04:42:49;;;;;;;21.02;8.40;;;;;;;-4.83;100.00;99221.59;5005217;28;20121;-79
2021/03/06 04:45:15;;;;;;;22.20;8.48;;;;;;;-4.93;100.00;99218.38;5019740;28;20072;-79
2021/03/06 04:47:42;;;;;;;19.63;8.52;;;;;;;-4.84;100.00;99225.22;5015909;28;20050;-78
2021/03/06 04:50:10;;;;;;;18.02;8.40;;;;;;;-4.86;100.00;99214.84;5015197;28;20041;-79
2021/03/06 04:52:37;;;;;;;19.98;8.20;;;;;;;-4.80;100.00;99232.59;5015236;28;20084;-79
2021/03/06 04:55:04;;;;;;;17.58;8.10;;;;;;;-4.78;100.00;99227.16;5029965;28;20054;-78
2021/03/06 04:57:31;;;;;;;21.08;7.90;;;;;;;-4.83;100.00;99229.53;5013708;28;20046;-78
2021/03/06 04:59:57;;;;;;;18.23;7.68;;;;;;;-4.76;100.00;99225.97;5012706;28;20042;-77
2021/03/06 05:02:23;;;;;;;19.23;8.02;;;;;;;-4.74;100.00;99223.16;5013782;28;20064;-78
2021/03/06 05:04:49;;;;;;;15.57;7.47;;;;;;;-4.80;100.00;99234.44;5029828;28;20048;-78
2021/03/06 05:07:15;;;;;;;17.50;7.88;;;;;;;-4.87;100.00;99236.97;5014489;28;20440;-79
2021/03/06 05:09:41;;;;;;;17.70;7.95;;;;;;;-4.94;100.00;99232.56;4996511;28;20042;-78
2021/03/06 05:12:08;;;;;;;21.75;7.38;;;;;;;-5.03;100.00;99237.09;5013017;28;20060;-78
2021/03/06 05:14:34;;;;;;;15.90;7.50;;;;;;;-5.08;100.00;99226.22;4995018;28;20073;-78
2021/03/06 05:17:01;;;;;;;17.55;7.18;;;;;;;-5.12;100.00;99235.50;5014105;28;20455;-78
2021/03/06 05:19:30;;;;;;;17.48;7.75;;;;;;;-5.14;100.00;99237.50;5011814;28;20129;-78
2021/03/06 05:21:56;;;;;;;20.25;7.72;;;;;;;-5.16;100.00;99240.31;5012737;28;20052;-79
2021/03/06 05:24:22;;;;;;;19.67;8.13;;;;;;;-5.11;100.00;99242.44;5028676;28;20409;-77
2021/03/06 05:27:01;;;;;;;15.10;7.63;;;;;;;-5.06;100.00;99238.25;5013347;28;20049;-78
2021/03/06 05:29:31;;;;;;;17.65;7.80;;;;;;;-5.03;100.00;99239.72;5013154;28;20034;-77
2021/03/06 05:32:02;;;;;;;19.77;8.15;;;;;;;-5.03;100.00;99244.22;5018311;28;20045;-78
2021/03/06 05:34:29;;;;;;;20.92;7.63;;;;;;;-5.00;100.00;99239.38;5016416;28;20050;-77
2021/03/06 05:36:56;;;;;;;18.25;7.65;;;;;;;-5.06;100.00;99240.91;5028185;28;20041;-79
2021/03/06 05:39:22;;;;;;;19.50;7.80;;;;;;;-5.05;100.00;99239.91;5041768;28;20500;-77
2021/03/06 05:41:49;;;;;;;18.13;7.57;;;;;;;-4.96;100.00;99239.84;5012022;28;20433;-77
2021/03/06 05:44:15;;;;;;;18.75;7.40;;;;;;;-5.08;100.00;99237.63;5011913;28;20552;-77
2021/03/06 05:46:42;;;;;;;17.13;6.30;;;;;;;-5.04;100.00;99251.28;5028389;28;20438;-77
2021/03/06 05:49:09;;;;;;;14.10;7.13;;;;;;;-5.13;100.00;99239.97;4995996;28;20046;-77
2021/03/06 05:51:37;;;;;;;17.73;7.38;;;;;;;-5.11;100.00;99247.72;5012386;28;20069;-78
2021/03/06 05:54:10;;;;;;;17.80;7.53;;;;;;;-5.06;100.00;99230.34;5029293;28;20038;-77
2021/03/06 05:56:39;;;;;;;22.50;8.13;;;;;;;-5.03;100.00;99237.91;5031427;28;20088;-78
2021/03/06 05:59:08;;;;;;;17.15;7.43;;;;;;;-5.14;100.00;99226.97;5030859;28;20041;-78
2021/03/06 06:01:39;;;;;;;14.38;6.75;;;;;;;-5.07;100.00;99234.00;5047749;28;20500;-78
2021/03/06 06:04:07;;;;;;;18.58;7.22;;;;;;;-5.03;100.00;99237.91;5032731;28;20087;-78
2021/03/06 06:06:35;;;;;;;14.75;7.15;;;;;;;-4.93;100.00;99235.06;5030735;28;20116;-78
2021/03/06 06:09:06;;;;;;;19.48;8.00;;;;;;;-4.87;100.00;99233.50;5031449;28;20046;-78
2021/03/06 06:11:32;;;;;;;17.40;7.38;;;;;;;-4.91;100.00;99233.03;5033775;28;20122;-77
2021/03/06 06:14:00;;;;;;;16.83;7.35;;;;;;;-4.84;100.00;99230.50;5032138;28;20042;-77
2021/03/06 06:16:29;;;;;;;19.73;8.32;;;;;;;-4.68;100.00;99238.31;5032902;28;20034;-78
2021/03/06 06:18:56;;;;;;;22.15;8.48;;;;;;;-4.73;100.00;99246.75;5015040;28;20103;-78
2021/03/06 06:21:37;;;;;;;21.38;8.98;;;;;;;-4.57;100.00;99243.97;5031882;28;20053;-78
2021/03/06 06:24:12;;;;;;;19.33;8.68;;;;;;;-4.68;100.00;99243.59;5033507;28;20056;-79
2021/03/06 06:26:39;;;;;;;16.98;7.97;;;;;;;-4.66;100.00;99246.84;5015910;28;20501;-78
2021/03/06 06:29:06;;;;;;;18.60;7.50;;;;;;;-4.66;100.00;99252.16;5031108;28;20121;-79
2021/03/06 06:31:33;;;;;;;19.15;7.70;;;;;;;-4.60;100.00;99252.28;5030340;28;20041;-78
2021/03/06 06:33:59;;;;;;;15.40;7.15;;;;;;;-4.54;100.00;99250.72;5037089;28;20104;-78
2021/03/06 06:36:38;;;;;;;16.85;6.93;;;;;;;-4.42;100.00;99265.16;5037559;28;20044;-79
2021/03/06 06:39:06;;;;;;;15.90;7.35;;;;;;;-4.40;100.00;99255.22;5033894;28;20038;-79
2021/03/06 06:41:55;;;;;;;19.35;8.50;;;;;;;-4.19;100.00;99265.09;5031733;28;20081;-78
2021/03/06 06:44:22;;;;;;;18.27;7.78;;;;;;;-4.17;100.00;99271.84;5048893;28;20052;-79
2021/03/06 06:46:50;;;;;;;16.17;7.35;;;;;;;-4.08;100.00;99286.63;5031367;28;20057;-78
2021/03/06 06:49:17;;;;;;;22.88;8.32;;;;;;;-3.98;100.00;99294.28;5033176;28;20041;-78
2021/03/06 06:52:03;;;;;;;21.92;8.27;;;;;;;-3.94;100.00;99279.69;5031069;28;20046;-78
2021/03/06 06:54:31;;;;;;;18.40;8.65;;;;;;;-3.82;100.00;99286.97;5031380;28;20046;-77
2021/03/06 06:57:16;;;;;;;22.00;8.27;;;;;;;-3.61;100.00;99293.38;5032723;28;20103;-78
2021/03/06 06:59:53;;;;;;;22.15;9.02;;;;;;;-3.56;100.00;99285.72;5035862;28;20124;-83
2021/03/06 07:02:20;;;;;;;20.88;9.15;;;;;;;-3.41;100.00;99292.63;5032542;28;20045;-78
2021/03/06 07:04:57;;;;;;;19.92;8.88;;;;;;;-3.29;100.00;99295.59;5034413;28;20045;-78
2021/03/06 07:07:37;;;;;;;21.70;9.02;;;;;;;-3.06;100.00;99290.16;5031688;28;20095;-78
2021/03/06 07:10:12;;;;;;;16.35;8.35;;;;;;;-2.70;100.00;99297.06;5030910;28;20042;-78
2021/03/06 07:12:41;;;;;;;19.73;8.98;;;;;;;-2.34;100.00;99301.44;5031805;28;20057;-78
2021/03/06 07:15:27;;;;;;;16.85;8.25;;;;;;;-2.02;100.00;99285.81;5030854;28;20409;-77
2021/03/06 07:17:54;;;;;;;;;;;;;;;-1.71;100.00;99287.22;5031523;28;20060;-77
2021/03/06 07:20:23;;;;;;;16.33;7.78;;;;;;;-1.49;100.00;99297.53;5033402;28;19921;-78
2021/03/06 07:22:51;;;;;;;14.68;7.32;;;;;;;-1.31;100.00;99286.38;5033730;28;20056;-79
2021/03/06 07:25:18;;;;;;;20.02;7.60;;;;;;;-1.15;100.00;99286.03;5032614;28;20497;-77
2021/03/06 07:27:44;;;;;;;17.10;6.75;;;;;;;-1.04;100.00;99304.06;5033754;28;20045;-78
2021/03/06 07:30:13;;;;;;;13.65;6.68;;;;;;;-0.92;100.00;99298.97;5017129;28;20052;-81
2021/03/06 07:32:42;;;;;;;17.02;6.45;;;;;;;-0.77;100.00;99304.94;5035094;28;20092;-78
2021/03/06 07:35:18;;;;;;;15.68;6.07;;;;;;;-0.66;100.00;99302.53;5034925;28;20052;-83
2021/03/06 07:38:25;;;;;;;17.42;6.25;;;;;;;-0.62;100.00;99290.44;4974801;28;20141;-78
2021/03/06 07:41:10;;;;;;;14.05;5.80;;;;;;;-0.48;100.00;99301.09;4962451;28;20128;-77
2021/03/06 07:43:40;;;;;;;13.52;6.43;;;;;;;-0.35;100.00;99301.13;5011537;28;20057;-78
2021/03/06 07:46:09;;;;;;;12.27;6.18;;;;;;;-0.34;100.00;99298.28;5027073;28;20066;-77
2021/03/06 07:48:41;;;;;;;14.75;5.20;;;;;;;-0.26;100.00;99289.25;5012191;28;20041;-77
2021/03/06 07:51:08;;;;;;;12.10;5.63;;;;;;;-0.18;100.00;99299.69;5002232;28;20437;-79
2021/03/06 07:53:39;;;;;;;14.45;5.40;;;;;;;-0.17;100.00;99304.81;5027727;28;20037;-77
2021/03/06 07:56:06;;;;;;;13.05;5.65;;;;;;;0.02;100.00;99308.50;5030650;28;20037;-78
2021/03/06 07:58:49;;;;;;;10.75;5.13;;;;;;;0.09;100.00;99301.31;5027459;28;20045;-78
2021/03/06 08:01:29;;;;;;;11.55;4.47;;;;;;;0.09;100.00;99314.63;5025307;28;20050;-78
2021/03/06 08:03:57;;;;;;;11.65;4.63;;;;;;;0.12;100.00;99308.06;5029307;28;20037;-77
2021/03/06 08:06:30;;;;;;;10.38;4.82;;;;;;;0.23;100.00;99318.91;5030982;28;20136;-77
2021/03/06 08:09:09;;;;;;;12.88;5.03;;;;;;;0.23;100.00;99296.78;5043624;28;20289;-77
2021/03/06 08:11:45;;;;;;;8.87;4.30;;;;;;;0.39;100.00;99312.31;5033190;28;20049;-78
2021/03/06 08:14:32;;;;;;;8.70;4.10;;;;;;;0.46;100.00;99315.78;5013425;28;20084;-77
2021/03/06 08:17:32;;;;;;;11.23;4.28;;;;;;;0.48;100.00;99313.72;5016969;28;20157;-78
2021/03/06 08:19:59;;;;;;;9.63;4.70;;;;;;;0.71;100.00;99311.41;5020990;28;20037;-77
2021/03/06 08:22:29;;;;;;;12.70;4.80;;;;;;;0.74;100.00;99311.00;5030268;28;20037;-82
2021/03/06 08:25:15;;;;;;;8.52;4.43;;;;;;;0.72;100.00;99304.25;5025892;28;20042;-77
2021/03/06 08:27:41;;;;;;;10.82;4.35;;;;;;;0.83;100.00;99314.22;5027259;28;20128;-77
2021/03/06 08:30:25;;;;;;;8.98;4.35;;;;;;;0.87;100.00;99313.63;5015299;28;20069;-78
2021/03/06 08:33:14;;;;;;;10.02;4.32;;;;;;;1.14;100.00;99314.28;5014981;28;20584;-80
2021/03/06 08:35:40;;;;;;;12.93;4.50;;;;;;;1.26;100.00;99313.41;5031678;28;20045;-79
2021/03/06 08:38:28;;;;;;;11.63;4.43;;;;;;;1.40;100.00;99311.47;5016611;28;20117;-80
2021/03/06 08:40:55;;;;;;;9.60;4.07;;;;;;;1.51;100.00;99312.63;5035466;28;20072;-79
2021/03/06 08:43:22;;;;;;;8.93;4.28;;;;;;;1.52;100.00;99309.78;5017006;28;20045;-79
2021/03/06 08:45:49;;;;;;;10.52;3.80;;;;;;;1.51;100.00;99313.47;5015411;28;20050;-79
2021/03/06 08:48:16;;;;;;;12.18;4.00;;;;;;;1.55;100.00;99303.19;5030486;28;20104;-78
2021/03/06 08:50:43;;;;;;;9.95;3.88;;;;;;;1.55;100.00;99303.19;5049929;28;20049;-79
2021/03/06 08:53:17;;;;;;;11.07;3.30;;;;;;;1.52;100.00;99299.09;5031246;28;20037;-78
2021/03/06 08:55:45;;;;;;;9.85;4.03;;;;;;;1.64;100.00;99304.53;5035069;28;20049;-80
2021/03/06 08:58:20;;;;;;;7.55;3.30;;;;;;;1.81;100.00;99295.78;5053415;28;20523;-78
2021/03/06 09:00:53;;;;;;;7.90;3.25;;;;;;;1.76;100.00;99300.97;5039949;28;20076;-79
2021/03/06 09:03:25;;;;;;;11.73;3.33;;;;;;;1.82;100.00;99302.78;5035311;28;20049;-79
2021/03/06 09:05:58;;;;;;;6.65;3.50;;;;;;;1.83;100.00;99300.91;5036280;28;20049;-80
2021/03/06 09:08:26;;;;;;;8.30;3.50;;;;;;;1.88;100.00;99298.41;5038191;28;20037;-79
2021/03/06 09:10:58;;;;;;;10.40;3.72;;;;;;;1.97;100.00;99299.75;5054672;28;20123;-78
2021/03/06 09:13:27;;;;;;;9.13;3.28;;;;;;;2.09;100.00;99308.69;5040269;28;20117;-79
2021/03/06 09:15:57;;;;;;;5.65;2.13;;;;;;;2.26;100.00;99307.09;5054270;28;20056;-79
2021/03/06 09:18:31;;;;;;;6.63;2.03;;;;;;;2.24;100.00;99305.69;5041851;28;20053;-81
2021/03/06 09:21:20;;;;;;;3.67;2.00;;;;;;;2.42;100.00;99284.34;5043775;28;20033;-81
2021/03/06 09:24:00;;;;;;;4.40;2.30;;;;;;;2.71;100.00;99296.16;5040304;28;20512;-80
2021/03/06 09:26:35;;;;;;;3.77;1.97;;;;;;;2.47;100.00;99274.63;5029611;28;20046;-81
2021/03/06 09:29:08;;;;;;;7.95;3.00;;;;;;;2.78;100.00;99283.50;5026060;28;20103;-79
2021/03/06 09:31:34;;;;;;;7.75;2.50;;;;;;;3.04;100.00;99288.53;5027317;28;20046;-79
2021/03/06 09:34:02;;;;;;;4.85;2.10;;;;;;;3.12;100.00;99293.56;5045931;28;20116;-80
2021/03/06 09:36:40;;;;;;;7.85;2.60;;;;;;;3.13;97.28;99271.94;5048988;28;20049;-80
2021/03/06 09:39:14;;;;;;;5.45;2.33;;;;;;;3.23;87.43;99292.00;5039312;28;20093;-80
2021/03/06 09:41:49;;;;;;;5.47;2.45;;;;;;;3.67;86.94;99289.66;5053135;28;20041;-82
2021/03/06 09:44:16;;;;;;;6.18;2.15;;;;;;;3.68;79.29;99279.78;5035771;28;20056;-81
2021/03/06 09:46:44;;;;;;;5.22;1.98;;;;;;;3.83;83.13;99288.19;5053606;28;20099;-82
2021/03/06 09:49:14;;;;;;;5.90;2.20;;;;;;;3.80;77.68;99285.97;5032205;28;20102;-83
2021/03/06 09:51:52;;;;;;;6.45;2.65;;;;;;;4.16;77.66;99282.25;5037780;28;20057;-80
2021/03/06 09:54:24;;;;;;;6.68;2.60;;;;;;;4.27;73.16;99287.63;5033591;28;20046;-79
2021/03/06 09:56:56;;;;;;;4.43;2.42;;;;;;;4.42;72.51;99287.16;5027042;28;20397;-79
2021/03/06 09:59:25;;;;;;;6.07;3.00;;;;;;;4.71;78.46;99288.03;5026808;28;20512;-80
2021/03/06 10:01:52;;;;;;;4.38;2.70;;;;;;;5.50;69.84;99292.53;5024493;28;20105;-81
2021/03/06 10:04:23;;;;;;;5.00;2.08;;;;;;;5.36;60.32;99280.47;5043564;28;20049;-81
2021/03/06 10:06:56;;;;;;;4.53;2.28;;;;;;;5.81;59.82;99297.41;5034334;28;20488;-80
2021/03/06 10:09:23;;;;;;;5.70;2.58;;;;;;;6.30;58.13;99276.16;5035494;28;20041;-80
2021/03/06 10:12:02;;;;;;;6.18;2.60;;;;;;;6.69;55.44;99283.16;5035731;28;20670;-81
2021/03/06 10:14:30;;;;;;;8.18;2.88;;;;;;;6.88;56.13;99288.00;5039079;28;20056;-79
2021/03/06 10:17:05;;;;;;;5.90;2.70;;;;;;;7.23;53.27;99282.19;5019742;28;20057;-81
2021/03/06 10:19:43;;;;;;;6.78;2.70;;;;;;;7.94;52.84;99288.28;5056685;22;20053;-77
2021/03/06 10:22:12;;;;;;;4.50;2.35;;;;;;;7.41;51.50;99284.56;5051489;28;20532;-77
2021/03/06 10:24:50;;;;;;;5.07;2.60;;;;;;;7.70;50.13;99282.41;5051629;28;20041;-77
2021/03/06 10:27:34;;;;;;;4.40;2.53;;;;;;;8.50;49.45;99286.81;5050892;28;20047;-79
2021/03/06 10:30:16;;;;;;;6.78;2.97;;;;;;;7.35;48.42;99287.47;5026028;28;20045;-76
2021/03/06 10:32:43;;;;;;;6.15;2.58;;;;;;;8.03;47.93;99289.44;4995840;28;20046;-77
2021/03/06 10:35:43;;;;;;;6.07;3.00;;;;;;;8.22;45.88;99287.97;5026607;28;20133;-78
2021/03/06 10:38:14;;;;;;;6.00;3.20;;;;;;;7.86;48.34;99291.44;5029078;28;20485;-76
2021/03/06 10:40:51;;;;;;;5.72;2.80;;;;;;;8.85;47.94;99288.91;5029873;28;20045;-78
2021/03/06 10:43:41;;;;;;;6.47;2.53;;;;;;;9.34;44.97;99271.28;5014437;28;20478;-77
2021/03/06 10:46:18;;;;;;;5.25;2.83;;;;;;;9.86;44.30;99269.16;5010621;28;20482;-76
2021/03/06 10:48:56;;;;;;;4.45;2.42;;;;;;;10.41;41.32;99259.41;5010458;28;20486;-77
2021/03/06 10:51:25;;;;;;;9.18;3.20;;;;;;;9.46;43.75;99263.72;5009589;28;20042;-75
2021/03/06 10:54:00;;;;;;;6.22;2.95;;;;;;;9.86;43.39;99269.16;4992872;28;20531;-76
2021/03/06 10:56:26;;;;;;;7.15;3.00;;;;;;;9.72;41.28;99257.28;5010351;28;20688;-78
2021/03/06 10:58:52;;;;;;;9.10;3.67;;;;;;;9.64;42.82;99260.50;5009946;28;20104;-74
2021/03/06 11:01:33;;;;;;;6.30;3.05;;;;;;;10.23;39.16;99263.50;5028715;28;20132;-74
2021/03/06 11:04:00;;;;;;;5.75;3.28;;;;;;;9.89;40.72;99263.22;5027971;28;20056;-75
2021/03/06 11:06:27;;;;;;;7.65;3.60;;;;;;;9.82;39.90;99261.88;5028154;28;20048;-75
2021/03/06 11:09:04;;;;;;;8.25;4.18;;;;;;;10.28;40.59;99259.97;5028699;28;20049;-76
2021/03/06 11:11:47;;;;;;;5.80;3.78;;;;;;;10.42;39.21;99250.22;5029483;28;20041;-77
2021/03/06 11:14:43;;;;;;;8.25;3.80;;;;;;;11.11;38.91;99253.78;5025857;28;20485;-78
2021/03/06 11:17:16;;;;;;;8.73;4.47;;;;;;;10.90;36.33;99254.94;5015339;28;20144;-77
2021/03/06 11:19:45;;;;;;;7.50;4.47;;;;;;;10.34;39.38;99258.91;5012938;28;20505;-76
2021/03/06 11:22:12;;;;;;;7.90;4.68;;;;;;;10.53;39.54;99236.38;5008946;28;20054;-75
2021/03/06 11:24:38;;;;;;;7.28;4.35;;;;;;;10.88;38.73;99259.84;5007976;28;20577;-73
2021/03/06 11:27:05;;;;;;;7.60;4.40;;;;;;;12.01;37.18;99257.00;5028490;28;20033;-75
2021/03/06 11:29:31;;;;;;;8.90;4.68;;;;;;;11.49;37.25;99251.38;5027913;28;20049;-76
2021/03/06 11:31:57;;;;;;;8.05;4.72;;;;;;;10.34;36.47;99251.59;5029313;28;20051;-74
2021/03/06 11:34:24;;;;;;;6.68;4.68;;;;;;;10.54;37.50;99237.19;5028648;28;20129;-75
2021/03/06 11:36:50;;;;;;;6.63;4.75;;;;;;;12.40;36.03;99233.28;5029504;28;20042;-75
2021/03/06 11:39:17;;;;;;;6.85;4.10;;;;;;;10.87;37.64;99228.41;5029355;28;20052;-75